createdAt,value
2023-03-01T00:00:32.777Z,18.89
2023-03-01T00:01:32.697Z,18.89
2023-03-01T00:02:32.730Z,18.89
2023-03-01T00:03:32.825Z,18.89
2023-03-01T00:04:32.673Z,18.91
2023-03-01T00:05:32.665Z,18.89
2023-03-01T00:06:33.209Z,18.89
2023-03-01T00:07:32.637Z,18.89
2023-03-01T00:08:32.630Z,18.89
2023-03-01T00:09:32.642Z,18.88
2023-03-01T00:10:32.612Z,18.89
2023-03-01T00:11:32.602Z,18.89
2023-03-01T00:12:32.768Z,18.88
2023-03-01T00:13:32.577Z,18.89
2023-03-01T00:14:32.572Z,18.89
2023-03-01T00:15:32.554Z,18.88
2023-03-01T00:16:32.933Z,18.89
2023-03-01T00:17:32.529Z,18.89
2023-03-01T00:18:32.976Z,18.91
2023-03-01T00:19:32.801Z,18.88
2023-03-01T00:20:32.530Z,18.89
2023-03-01T00:21:32.500Z,18.89
2023-03-01T00:22:32.541Z,18.89
2023-03-01T00:23:32.477Z,18.91
2023-03-01T00:24:32.628Z,18.91
2023-03-01T00:25:32.456Z,18.89
2023-03-01T00:26:32.865Z,18.91
2023-03-01T00:27:32.449Z,18.91
2023-03-01T00:28:32.429Z,18.89
2023-03-01T00:29:32.408Z,18.89
2023-03-01T00:30:32.606Z,18.91
2023-03-01T00:31:32.400Z,18.91
2023-03-01T00:32:32.384Z,18.92
2023-03-01T00:33:32.392Z,18.91
2023-03-01T00:34:32.373Z,18.91
2023-03-01T00:35:32.372Z,18.92
2023-03-01T00:36:32.925Z,18.91
2023-03-01T00:37:32.340Z,18.91
2023-03-01T00:38:32.328Z,18.89
2023-03-01T00:39:32.312Z,18.89
2023-03-01T00:40:32.319Z,18.89
2023-03-01T00:41:32.295Z,18.89
2023-03-01T00:42:32.574Z,18.89
2023-03-01T00:43:32.269Z,18.89
2023-03-01T00:44:34.296Z,18.86
2023-03-01T00:45:34.331Z,18.89
2023-03-01T00:46:33.478Z,18.86
2023-03-01T00:47:33.720Z,18.88
2023-03-01T00:48:32.418Z,18.88
2023-03-01T00:49:32.274Z,18.86
2023-03-01T00:50:33.445Z,18.88
2023-03-01T00:51:32.272Z,18.88
2023-03-01T00:52:35.352Z,18.88
2023-03-01T00:53:33.050Z,18.86
2023-03-01T00:54:33.119Z,18.86
2023-03-01T00:55:32.195Z,18.85
2023-03-01T00:57:04.380Z,18.85
2023-03-01T00:57:51.849Z,18.85
2023-03-01T00:58:45.200Z,18.85
2023-03-01T00:59:32.142Z,18.85
2023-03-01T01:00:32.288Z,18.85
2023-03-01T01:01:32.327Z,18.86
2023-03-01T01:02:32.165Z,18.85
2023-03-01T01:03:32.088Z,18.83
2023-03-01T01:04:32.084Z,18.85
2023-03-01T01:05:32.074Z,18.85
2023-03-01T01:06:32.675Z,18.85
2023-03-01T01:07:32.065Z,18.85
2023-03-01T01:08:32.061Z,18.83
2023-03-01T01:09:32.094Z,18.85
2023-03-01T01:10:32.030Z,18.83
2023-03-01T01:11:32.000Z,18.86
2023-03-01T01:12:32.148Z,18.83
2023-03-01T01:13:31.988Z,18.85
2023-03-01T01:14:32.005Z,18.83
2023-03-01T01:15:32.018Z,18.83
2023-03-01T01:16:32.393Z,18.85
2023-03-01T01:17:31.946Z,18.85
2023-03-01T01:18:32.063Z,18.85
2023-03-01T01:19:31.928Z,18.85
2023-03-01T01:20:31.917Z,18.83
2023-03-01T01:21:31.902Z,18.83
2023-03-01T01:22:31.888Z,18.83
2023-03-01T01:23:31.900Z,18.85
2023-03-01T01:24:32.062Z,18.85
2023-03-01T01:25:31.863Z,18.85
2023-03-01T01:26:32.296Z,18.83
2023-03-01T01:27:31.848Z,18.83
2023-03-01T01:28:33.678Z,18.85
2023-03-01T01:29:31.915Z,18.86
2023-03-01T01:30:31.963Z,18.83
2023-03-01T01:31:31.903Z,18.85
2023-03-01T01:32:31.824Z,18.83
2023-03-01T02:25:13.387Z,18.86
2023-03-01T02:26:12.926Z,18.85
2023-03-01T02:27:13.698Z,18.85
2023-03-01T02:28:12.901Z,18.85
2023-03-01T02:29:12.890Z,18.86
2023-03-01T02:30:14.494Z,18.85
2023-03-01T02:31:13.138Z,18.82
2023-03-01T02:32:17.118Z,18.83
2023-03-01T02:33:13.042Z,18.82
2023-03-01T02:34:12.906Z,18.83
2023-03-01T02:35:13.065Z,18.83
2023-03-01T02:36:12.897Z,18.83
2023-03-01T02:37:13.546Z,18.82
2023-03-01T02:38:12.792Z,18.83
2023-03-01T02:39:14.952Z,18.82
2023-03-01T02:40:12.787Z,18.85
2023-03-01T02:41:12.984Z,18.83
2023-03-01T02:42:13.338Z,18.83
2023-03-01T02:43:13.007Z,18.83
2023-03-01T02:44:14.059Z,18.83
2023-03-01T02:45:13.087Z,18.83
2023-03-01T02:46:16.484Z,18.85
2023-03-01T02:47:14.021Z,18.82
2023-03-01T02:48:13.878Z,18.83
2023-03-01T02:49:13.117Z,18.85
2023-03-01T02:50:13.401Z,18.83
2023-03-01T02:51:12.816Z,18.82
2023-03-01T02:52:12.927Z,18.83
2023-03-01T02:53:12.671Z,18.83
2023-03-01T02:54:12.923Z,18.83
2023-03-01T02:55:12.607Z,18.83
2023-03-01T02:56:13.117Z,18.83
2023-03-01T02:57:13.004Z,18.83
2023-03-01T02:58:12.549Z,18.83
2023-03-01T02:59:12.525Z,18.85
2023-03-01T03:00:12.533Z,18.83
2023-03-01T03:01:12.868Z,18.83
2023-03-01T03:02:12.515Z,18.83
2023-03-01T03:03:12.681Z,18.83
2023-03-01T03:04:12.477Z,18.83
2023-03-01T03:05:12.503Z,18.83
2023-03-01T03:06:12.444Z,18.83
2023-03-01T03:07:12.469Z,18.83
2023-03-01T03:08:13.213Z,18.83
2023-03-01T03:09:12.622Z,18.83
2023-03-01T03:10:12.478Z,18.83
2023-03-01T03:11:12.400Z,18.83
2023-03-01T03:12:12.385Z,18.83
2023-03-01T03:13:12.378Z,18.85
2023-03-01T03:14:12.378Z,18.83
2023-03-01T03:15:12.523Z,18.83
2023-03-01T03:16:12.424Z,18.83
2023-03-01T03:17:12.338Z,18.83
2023-03-01T03:18:12.344Z,18.85
2023-03-01T03:19:12.316Z,18.82
2023-03-01T03:20:12.317Z,18.83
2023-03-01T03:21:12.448Z,18.83
2023-03-01T03:22:12.293Z,18.83
2023-03-01T03:23:12.273Z,18.83
2023-03-01T03:24:12.260Z,18.82
2023-03-01T03:25:12.252Z,18.82
2023-03-01T03:26:12.254Z,18.83
2023-03-01T03:27:12.387Z,18.82
2023-03-01T03:28:12.225Z,18.83
2023-03-01T03:29:12.207Z,18.82
2023-03-01T03:30:12.221Z,18.82
2023-03-01T03:31:12.216Z,18.83
2023-03-01T03:32:12.212Z,18.82
2023-03-01T03:33:13.665Z,18.82
2023-03-01T03:34:12.321Z,18.82
2023-03-01T03:35:12.162Z,18.82
2023-03-01T03:36:12.150Z,18.83
2023-03-01T03:37:12.132Z,18.81
2023-03-01T03:38:12.108Z,18.81
2023-03-01T03:39:12.249Z,18.81
2023-03-01T03:40:12.092Z,18.82
2023-03-01T03:41:12.077Z,18.81
2023-03-01T03:42:12.065Z,18.81
2023-03-01T03:43:12.134Z,18.79
2023-03-01T03:44:12.040Z,18.82
2023-03-01T03:45:12.199Z,18.79
2023-03-01T03:46:12.167Z,18.82
2023-03-01T03:47:12.015Z,18.81
2023-03-01T03:48:11.997Z,18.79
2023-03-01T03:49:12.006Z,18.81
2023-03-01T03:50:12.081Z,18.79
2023-03-01T03:51:12.194Z,18.82
2023-03-01T03:52:11.969Z,18.82
2023-03-01T03:53:11.960Z,18.81
2023-03-01T03:54:11.936Z,18.81
2023-03-01T03:55:11.988Z,18.81
2023-03-01T03:56:11.919Z,18.82
2023-03-01T03:57:12.136Z,18.81
2023-03-01T03:58:11.898Z,18.81
2023-03-01T03:59:11.888Z,18.82
2023-03-01T04:00:11.884Z,18.81
2023-03-01T04:01:11.969Z,18.79
2023-03-01T04:02:11.868Z,18.82
2023-03-01T04:03:11.892Z,18.81
2023-03-01T04:04:11.839Z,18.81
2023-03-01T04:05:11.817Z,18.81
2023-03-01T04:06:11.826Z,18.81
2023-03-01T04:07:11.808Z,18.79
2023-03-01T04:08:11.785Z,18.81
2023-03-01T04:09:12.147Z,18.81
2023-03-01T04:10:11.772Z,18.81
2023-03-01T04:11:11.764Z,18.79
2023-03-01T04:12:11.754Z,18.79
2023-03-01T04:13:11.842Z,18.79
2023-03-01T04:14:11.722Z,18.78
2023-03-01T04:15:11.889Z,18.79
2023-03-01T04:16:11.726Z,18.79
2023-03-01T04:17:11.712Z,18.79
2023-03-01T04:18:11.721Z,18.81
2023-03-01T04:19:11.681Z,18.78
2023-03-01T04:20:11.660Z,18.78
2023-03-01T04:21:11.839Z,18.78
2023-03-01T04:22:11.655Z,18.81
2023-03-01T04:23:11.978Z,18.79
2023-03-01T04:24:11.642Z,18.78
2023-03-01T04:25:11.614Z,18.79
2023-03-01T04:26:11.600Z,18.79
2023-03-01T04:27:11.814Z,18.79
2023-03-01T04:28:11.592Z,18.79
2023-03-01T04:29:11.587Z,18.81
2023-03-01T04:30:11.660Z,18.79
2023-03-01T04:31:11.551Z,18.79
2023-03-01T04:32:11.671Z,18.79
2023-03-01T04:33:11.663Z,18.79
2023-03-01T04:34:11.515Z,18.79
2023-03-01T04:35:11.506Z,18.76
2023-03-01T04:36:11.670Z,18.78
2023-03-01T04:37:11.491Z,18.79
2023-03-01T04:38:11.467Z,18.79
2023-03-01T04:39:11.623Z,18.78
2023-03-01T04:40:11.454Z,18.76
2023-03-01T04:41:11.450Z,18.79
2023-03-01T04:42:11.447Z,18.79
2023-03-01T04:43:11.418Z,18.78
2023-03-01T04:44:11.417Z,18.79
2023-03-01T04:45:11.552Z,18.79
2023-03-01T04:46:12.436Z,18.79
2023-03-01T04:47:11.398Z,18.79
2023-03-01T04:48:11.374Z,18.78
2023-03-01T04:49:11.357Z,18.79
2023-03-01T04:50:11.347Z,18.79
2023-03-01T04:51:11.645Z,18.79
2023-03-01T04:52:11.327Z,18.79
2023-03-01T04:53:11.342Z,18.78
2023-03-01T04:54:11.304Z,18.78
2023-03-01T04:55:11.441Z,18.79
2023-03-01T04:56:11.301Z,18.78
2023-03-01T04:57:11.431Z,18.78
2023-03-01T04:58:11.272Z,18.78
2023-03-01T04:59:11.254Z,18.76
2023-03-01T05:00:11.277Z,18.78
2023-03-01T05:01:11.218Z,18.78
2023-03-01T05:02:11.219Z,18.78
2023-03-01T05:03:11.355Z,18.78
2023-03-01T05:04:11.226Z,18.76
2023-03-01T05:05:11.200Z,18.78
2023-03-01T05:06:11.188Z,18.76
2023-03-01T05:07:11.217Z,18.78
2023-03-01T05:08:11.153Z,18.78
2023-03-01T05:09:11.296Z,18.76
2023-03-01T05:10:11.183Z,18.78
2023-03-01T05:11:11.119Z,18.74
2023-03-01T05:12:11.136Z,18.74
2023-03-01T05:13:11.107Z,18.76
2023-03-01T05:14:11.106Z,18.76
2023-03-01T05:15:11.253Z,18.74
2023-03-01T05:16:11.111Z,18.73
2023-03-01T05:17:11.067Z,18.76
2023-03-01T05:18:11.047Z,18.74
2023-03-01T05:19:11.064Z,18.74
2023-03-01T05:20:11.067Z,18.74
2023-03-01T05:21:11.171Z,18.76
2023-03-01T05:22:11.113Z,18.74
2023-03-01T05:23:11.007Z,18.74
2023-03-01T05:24:11.093Z,18.74
2023-03-01T05:25:11.094Z,18.76
2023-03-01T05:26:25.937Z,18.76
2023-03-01T05:27:11.115Z,18.78
2023-03-01T05:28:11.022Z,18.76
2023-03-01T05:29:10.940Z,18.76
2023-03-01T05:30:10.947Z,18.76
2023-03-01T05:31:10.981Z,18.76
2023-03-01T05:32:10.941Z,18.76
2023-03-01T05:33:11.240Z,18.76
2023-03-01T05:34:10.882Z,18.76
2023-03-01T05:35:10.862Z,18.78
2023-03-01T05:36:10.829Z,18.76
2023-03-01T05:37:11.299Z,18.76
2023-03-01T05:38:10.781Z,18.76
2023-03-01T05:39:10.929Z,18.74
2023-03-01T05:40:10.777Z,18.76
2023-03-01T05:41:10.802Z,18.76
2023-03-01T05:42:10.806Z,18.76
2023-03-01T05:43:10.738Z,18.76
2023-03-01T05:44:10.722Z,18.76
2023-03-01T05:45:10.830Z,18.76
2023-03-01T05:46:10.754Z,18.76
2023-03-01T05:47:10.690Z,18.76
2023-03-01T05:48:10.696Z,18.76
2023-03-01T05:49:10.667Z,18.76
2023-03-01T05:50:10.676Z,18.76
2023-03-01T05:51:10.988Z,18.76
2023-03-01T05:52:10.634Z,18.78
2023-03-01T05:53:10.656Z,18.78
2023-03-01T05:54:10.636Z,18.76
2023-03-01T05:55:10.608Z,18.78
2023-03-01T05:56:10.606Z,18.76
2023-03-01T05:57:10.811Z,18.79
2023-03-01T05:58:10.661Z,18.79
2023-03-01T05:59:10.561Z,18.79
2023-03-01T06:00:10.603Z,18.79
2023-03-01T06:01:10.550Z,18.79
2023-03-01T06:02:10.551Z,18.79
2023-03-01T06:03:10.680Z,18.78
2023-03-01T06:04:10.556Z,18.79
2023-03-01T06:05:10.648Z,18.78
2023-03-01T06:06:10.624Z,18.78
2023-03-01T06:07:10.493Z,18.78
2023-03-01T06:08:10.531Z,18.79
2023-03-01T06:09:10.576Z,18.76
2023-03-01T06:10:10.470Z,18.78
2023-03-01T06:11:10.446Z,18.79
2023-03-01T06:12:11.578Z,18.81
2023-03-01T06:13:10.496Z,18.82
2023-03-01T06:14:10.532Z,18.81
2023-03-01T06:15:10.673Z,18.82
2023-03-01T06:16:10.494Z,18.82
2023-03-01T06:17:10.490Z,18.81
2023-03-01T06:18:10.503Z,18.82
2023-03-01T06:19:10.350Z,18.82
2023-03-01T06:20:10.352Z,18.83
2023-03-01T06:21:10.460Z,18.83
2023-03-01T06:22:10.515Z,18.83
2023-03-01T06:23:10.825Z,18.85
2023-03-01T06:24:10.307Z,18.85
2023-03-01T06:25:10.286Z,18.86
2023-03-01T06:26:10.307Z,18.86
2023-03-01T06:27:10.455Z,18.86
2023-03-01T06:28:10.261Z,18.85
2023-03-01T06:29:10.263Z,18.88
2023-03-01T06:30:10.234Z,18.86
2023-03-01T06:31:11.438Z,18.86
2023-03-01T06:32:10.259Z,18.86
2023-03-01T06:33:10.403Z,18.88
2023-03-01T06:34:10.698Z,18.88
2023-03-01T06:35:11.834Z,18.88
2023-03-01T06:36:10.176Z,18.89
2023-03-01T06:37:10.159Z,18.91
2023-03-01T06:38:10.157Z,18.88
2023-03-01T06:39:10.307Z,18.91
2023-03-01T06:40:10.127Z,18.89
2023-03-01T06:41:10.216Z,18.92
2023-03-01T06:42:10.174Z,18.92
2023-03-01T06:43:10.102Z,18.92
2023-03-01T06:44:10.108Z,18.94
2023-03-01T06:45:10.223Z,18.92
2023-03-01T06:46:10.173Z,18.94
2023-03-01T06:47:10.083Z,18.94
2023-03-01T06:48:10.046Z,18.96
2023-03-01T06:49:10.949Z,18.98
2023-03-01T06:50:10.115Z,18.97
2023-03-01T06:51:12.110Z,18.96
2023-03-01T06:52:09.999Z,18.98
2023-03-01T06:53:10.000Z,18.98
2023-03-01T06:54:10.188Z,18.98
2023-03-01T06:55:09.966Z,19.00
2023-03-01T06:56:10.562Z,19.00
2023-03-01T06:57:10.080Z,19.00
2023-03-01T06:58:09.974Z,19.01
2023-03-01T06:59:10.085Z,19.04
2023-03-01T07:00:11.223Z,19.04
2023-03-01T07:01:09.915Z,19.04
2023-03-01T07:02:09.927Z,19.08
2023-03-01T07:03:10.162Z,19.08
2023-03-01T07:04:09.869Z,19.08
2023-03-01T07:05:09.873Z,19.09
2023-03-01T07:06:09.878Z,19.11
2023-03-01T07:07:09.886Z,19.11
2023-03-01T07:08:09.850Z,19.12
2023-03-01T07:09:09.974Z,19.11
2023-03-01T07:10:09.811Z,19.12
2023-03-01T07:11:09.807Z,19.12
2023-03-01T07:12:09.793Z,19.15
2023-03-01T07:13:09.806Z,19.15
2023-03-01T07:14:09.764Z,19.16
2023-03-01T07:15:09.888Z,19.17
2023-03-01T07:16:09.786Z,19.19
2023-03-01T07:17:09.738Z,19.20
2023-03-01T07:18:09.736Z,19.22
2023-03-01T07:19:09.710Z,19.23
2023-03-01T07:20:09.721Z,19.24
2023-03-01T07:21:10.702Z,19.26
2023-03-01T07:22:09.690Z,19.27
2023-03-01T07:23:09.706Z,19.29
2023-03-01T07:24:09.674Z,19.30
2023-03-01T07:25:09.650Z,19.30
2023-03-01T07:26:09.642Z,19.32
2023-03-01T07:27:09.831Z,19.34
2023-03-01T07:28:09.624Z,19.37
2023-03-01T07:29:09.601Z,19.38
2023-03-01T07:30:09.646Z,19.39
2023-03-01T07:31:09.601Z,19.41
2023-03-01T07:32:09.673Z,19.42
2023-03-01T07:33:09.848Z,19.44
2023-03-01T07:34:09.558Z,19.45
2023-03-01T07:35:09.541Z,19.45
2023-03-01T07:36:09.578Z,19.45
2023-03-01T07:37:09.517Z,19.47
2023-03-01T07:38:09.524Z,19.47
2023-03-01T07:39:09.643Z,19.48
2023-03-01T07:40:09.496Z,19.47
2023-03-01T07:41:09.494Z,19.48
2023-03-01T07:42:09.530Z,19.49
2023-03-01T07:43:09.459Z,19.52
2023-03-01T07:44:09.462Z,19.53
2023-03-01T07:45:09.580Z,19.53
2023-03-01T07:46:09.468Z,19.52
2023-03-01T07:47:09.425Z,19.53
2023-03-01T07:48:09.425Z,19.53
2023-03-01T07:49:09.400Z,19.53
2023-03-01T07:50:09.398Z,19.52
2023-03-01T07:51:09.515Z,19.53
2023-03-01T07:52:09.384Z,19.53
2023-03-01T07:53:09.371Z,19.53
2023-03-01T07:54:09.362Z,19.49
2023-03-01T07:55:09.357Z,19.52
2023-03-01T07:56:09.391Z,19.52
2023-03-01T07:57:09.490Z,19.48
2023-03-01T07:58:09.309Z,19.48
2023-03-01T07:59:09.290Z,19.48
2023-03-01T08:00:09.344Z,19.47
2023-03-01T08:01:09.270Z,19.47
2023-03-01T08:02:09.324Z,19.45
2023-03-01T08:03:09.416Z,19.47
2023-03-01T08:04:09.282Z,19.45
2023-03-01T08:05:09.236Z,19.45
2023-03-01T08:06:09.248Z,19.44
2023-03-01T08:07:09.200Z,19.44
2023-03-01T08:08:09.192Z,19.42
2023-03-01T08:09:09.310Z,19.42
2023-03-01T08:10:09.294Z,19.42
2023-03-01T08:11:09.170Z,19.44
2023-03-01T08:12:09.178Z,19.42
2023-03-01T08:13:09.140Z,19.41
2023-03-01T08:14:09.204Z,19.41
2023-03-01T08:15:09.253Z,19.42
2023-03-01T08:16:09.204Z,19.42
2023-03-01T08:17:09.154Z,19.41
2023-03-01T08:18:09.123Z,19.39
2023-03-01T08:19:09.091Z,19.41
2023-03-01T08:20:09.090Z,19.38
2023-03-01T08:21:09.241Z,19.37
2023-03-01T08:22:09.055Z,19.37
2023-03-01T08:23:09.029Z,19.37
2023-03-01T08:24:09.045Z,19.37
2023-03-01T08:25:09.170Z,19.35
2023-03-01T08:26:09.081Z,19.35
2023-03-01T08:27:09.126Z,19.32
2023-03-01T08:28:08.983Z,19.32
2023-03-01T08:29:09.001Z,19.32
2023-03-01T08:30:08.979Z,19.30
2023-03-01T08:31:08.955Z,19.30
2023-03-01T08:32:09.154Z,19.30
2023-03-01T08:33:09.312Z,19.30
2023-03-01T08:34:08.929Z,19.27
2023-03-01T08:35:08.903Z,19.29
2023-03-01T08:36:08.958Z,19.29
2023-03-01T08:37:08.889Z,19.27
2023-03-01T08:38:08.884Z,19.27
2023-03-01T08:39:09.019Z,19.27
2023-03-01T08:40:08.863Z,19.27
2023-03-01T08:41:08.889Z,19.27
2023-03-01T08:42:08.852Z,19.26
2023-03-01T08:43:08.863Z,19.26
2023-03-01T08:44:08.813Z,19.26
2023-03-01T08:45:08.946Z,19.24
2023-03-01T08:46:08.831Z,19.26
2023-03-01T08:47:08.795Z,19.26
2023-03-01T08:48:08.854Z,19.24
2023-03-01T08:49:08.794Z,19.24
2023-03-01T08:50:08.847Z,19.24
2023-03-01T08:51:08.868Z,19.24
2023-03-01T08:52:08.729Z,19.26
2023-03-01T08:53:08.730Z,19.24
2023-03-01T08:54:08.753Z,19.27
2023-03-01T08:55:08.705Z,19.24
2023-03-01T08:56:08.680Z,19.24
2023-03-01T08:57:08.851Z,19.26
2023-03-01T08:58:08.656Z,19.24
2023-03-01T08:59:08.660Z,19.24
2023-03-01T09:00:08.652Z,19.23
2023-03-01T09:01:08.655Z,19.22
2023-03-01T09:02:08.665Z,19.24
2023-03-01T09:03:08.788Z,19.24
2023-03-01T09:09:10.582Z,19.27
2023-03-01T09:10:11.534Z,19.24
2023-03-01T09:11:11.527Z,19.22
2023-03-01T09:12:13.841Z,19.22
2023-03-01T09:13:20.505Z,19.19
2023-03-01T09:14:12.469Z,19.17
2023-03-01T09:15:12.829Z,19.17
2023-03-01T09:16:11.536Z,19.16
2023-03-01T09:17:13.412Z,19.15
2023-03-01T09:18:11.509Z,19.12
2023-03-01T09:19:12.393Z,19.15
2023-03-01T09:20:11.552Z,19.12
2023-03-01T09:21:11.436Z,19.12
2023-03-01T09:22:11.421Z,19.11
2023-03-01T09:23:11.433Z,19.11
2023-03-01T09:24:12.591Z,19.12
2023-03-01T09:25:20.979Z,19.12
2023-03-01T09:26:11.893Z,19.15
2023-03-01T09:27:11.380Z,19.12
2023-03-01T09:28:24.215Z,19.12
2023-03-01T09:29:11.889Z,19.12
2023-03-01T09:30:11.547Z,19.12
2023-03-01T09:31:13.003Z,19.11
2023-03-01T09:32:11.332Z,19.12
2023-03-01T09:33:11.318Z,19.12
2023-03-01T09:34:11.315Z,19.11
2023-03-01T09:35:11.462Z,19.11
2023-03-01T09:36:43.076Z,19.11
2023-03-01T09:37:11.251Z,19.15
2023-03-01T09:38:11.250Z,19.11
2023-03-01T09:39:11.238Z,19.12
2023-03-01T09:40:11.220Z,19.12
2023-03-01T09:41:12.931Z,19.11
2023-03-01T09:42:11.352Z,19.12
2023-03-01T09:43:11.210Z,19.12
2023-03-01T09:44:11.263Z,19.12
2023-03-01T09:45:11.174Z,19.11
2023-03-01T09:46:14.065Z,19.11
2023-03-01T09:47:13.146Z,19.11
2023-03-01T09:48:11.398Z,19.11
2023-03-01T09:49:11.195Z,19.09
2023-03-01T09:50:11.128Z,19.11
2023-03-01T09:51:11.120Z,19.11
2023-03-01T09:52:13.167Z,19.11
2023-03-01T09:53:11.103Z,19.11
2023-03-01T09:54:11.273Z,19.11
2023-03-01T09:55:11.075Z,19.11
2023-03-01T09:56:11.293Z,19.11
2023-03-01T09:57:11.038Z,19.11
2023-03-01T09:58:11.893Z,19.11
2023-03-01T09:59:11.593Z,19.11
2023-03-01T10:00:11.919Z,19.15
2023-03-01T10:01:12.242Z,19.11
2023-03-01T10:02:10.989Z,19.12
2023-03-01T10:03:11.010Z,19.12
2023-03-01T10:04:12.567Z,19.15
2023-03-01T10:05:11.120Z,19.15
2023-03-01T10:06:16.636Z,19.15
2023-03-01T10:07:11.032Z,19.16
2023-03-01T10:08:12.141Z,19.15
2023-03-01T10:09:19.476Z,19.16
2023-03-01T10:10:11.894Z,19.16
2023-03-01T10:11:12.989Z,19.17
2023-03-01T10:12:16.200Z,19.17
2023-03-01T10:19:14.270Z,19.17
2023-03-01T10:19:19.906Z,19.19
2023-03-01T10:28:21.099Z,19.20
2023-03-01T10:28:31.120Z,19.22
2023-03-01T10:29:39.582Z,19.20
2023-03-01T10:30:31.895Z,19.20
2023-03-01T10:31:32.662Z,19.20
2023-03-01T10:32:32.637Z,19.20
2023-03-01T10:33:30.900Z,19.20
2023-03-01T10:34:41.090Z,19.20
2023-03-01T10:35:30.909Z,19.22
2023-03-01T10:36:32.472Z,19.20
2023-03-01T10:37:31.412Z,19.22
2023-03-01T10:38:30.830Z,19.23
2023-03-01T10:39:31.413Z,19.23
2023-03-01T10:40:31.056Z,19.23
2023-03-01T10:41:31.121Z,19.23
2023-03-01T10:42:34.099Z,19.23
2023-03-01T10:43:30.957Z,19.22
2023-03-01T10:44:30.781Z,19.23
2023-03-01T10:45:32.275Z,19.23
2023-03-01T10:46:30.887Z,19.22
2023-03-01T10:47:31.399Z,19.24
2023-03-01T10:48:31.492Z,19.24
2023-03-01T10:49:30.714Z,19.24
2023-03-01T10:50:36.444Z,19.23
2023-03-01T10:51:31.368Z,19.23
2023-03-01T10:52:30.687Z,19.24
2023-03-01T10:53:36.968Z,19.24
2023-03-01T10:54:30.788Z,19.26
2023-03-01T10:57:22.678Z,19.24
2023-03-01T10:58:23.879Z,19.26
2023-03-01T10:59:37.810Z,19.26
2023-03-01T11:01:21.589Z,19.26
2023-03-01T11:01:27.551Z,19.26
2023-03-01T11:02:29.312Z,19.26
2023-03-01T11:03:26.502Z,19.27
2023-03-01T11:04:26.509Z,19.26
2023-03-01T11:05:26.547Z,19.26
2023-03-01T11:10:27.449Z,19.24
2023-03-01T11:10:37.541Z,19.26
2023-03-01T11:11:37.289Z,19.26
2023-03-01T11:17:12.205Z,19.27
2023-03-01T11:17:18.499Z,19.26
2023-03-01T11:18:18.252Z,19.26
2023-03-01T11:19:21.234Z,19.24
2023-03-01T11:20:18.451Z,19.27
2023-03-01T11:21:18.139Z,19.26
2023-03-01T11:22:18.836Z,19.26
2023-03-01T11:23:40.907Z,19.26
2023-03-01T11:24:19.124Z,19.26
2023-03-01T11:25:33.011Z,19.27
2023-03-01T11:26:18.172Z,19.26
2023-03-01T11:27:18.078Z,19.26
2023-03-01T11:28:18.071Z,19.27
2023-03-01T11:29:19.239Z,19.26
2023-03-01T11:50:44.702Z,19.27
2023-03-01T11:50:50.455Z,19.26
2023-03-01T11:51:50.429Z,19.26
2023-03-01T11:52:55.077Z,19.26
2023-03-01T11:53:50.408Z,19.26
2023-03-01T11:54:55.564Z,19.26
2023-03-01T11:55:51.903Z,19.26
2023-03-01T11:56:50.391Z,19.26
2023-03-01T11:57:52.059Z,19.26
2023-03-01T11:58:51.415Z,19.26
2023-03-01T11:59:50.359Z,19.24
2023-03-01T12:00:51.185Z,19.24
2023-03-01T12:01:51.550Z,19.26
2023-03-01T12:02:50.354Z,19.24
2023-03-01T12:03:51.096Z,19.27
2023-03-01T12:04:50.714Z,19.26
2023-03-01T12:05:50.283Z,19.26
2023-03-01T12:07:48.945Z,19.24
2023-03-01T12:07:54.994Z,19.26
2023-03-01T12:08:59.849Z,19.24
2023-03-01T12:09:56.055Z,19.24
2023-03-01T12:10:53.933Z,19.24
2023-03-01T12:11:54.505Z,19.26
2023-03-01T12:12:54.538Z,19.26
2023-03-01T12:13:55.158Z,19.24
2023-03-01T12:14:57.366Z,19.24
2023-03-01T12:15:53.814Z,19.24
2023-03-01T12:16:53.934Z,19.26
2023-03-01T12:17:54.498Z,19.26
2023-03-01T12:18:53.811Z,19.26
2023-03-01T12:19:53.950Z,19.26
2023-03-01T12:20:53.776Z,19.26
2023-03-01T12:21:54.483Z,19.26
2023-03-01T12:25:05.132Z,19.29
2023-03-01T12:26:05.716Z,19.26
2023-03-01T12:27:07.731Z,19.26
2023-03-01T12:28:05.036Z,19.26
2023-03-01T12:29:06.194Z,19.27
2023-03-01T12:30:05.186Z,19.26
2023-03-01T12:31:04.990Z,19.27
2023-03-01T12:36:54.214Z,19.26
2023-03-01T12:37:44.552Z,19.24
2023-03-01T12:38:44.559Z,19.26
2023-03-01T12:39:45.286Z,19.24
2023-03-01T12:40:44.536Z,19.26
2023-03-01T12:41:44.569Z,19.24
2023-03-01T12:42:44.492Z,19.23
2023-03-01T12:43:44.506Z,19.24
2023-03-01T12:44:45.020Z,19.26
2023-03-01T12:45:44.525Z,19.23
2023-03-01T12:46:44.482Z,19.24
2023-03-01T12:47:44.636Z,19.24
2023-03-01T12:48:44.442Z,19.24
2023-03-01T12:49:44.438Z,19.24
2023-03-01T12:50:44.408Z,19.26
2023-03-01T12:51:44.974Z,19.24
2023-03-01T12:52:44.403Z,19.24
2023-03-01T12:53:44.566Z,19.24
2023-03-01T12:54:44.406Z,19.26
2023-03-01T12:55:44.374Z,19.24
2023-03-01T12:56:44.353Z,19.24
2023-03-01T12:57:44.349Z,19.24
2023-03-01T12:58:50.193Z,19.23
2023-03-01T12:59:44.968Z,19.24
2023-03-01T13:01:01.041Z,19.23
2023-03-01T13:01:44.303Z,19.26
2023-03-01T13:14:46.545Z,19.26
2023-03-01T13:16:03.275Z,19.26
2023-03-01T13:16:40.746Z,19.26
2023-03-01T13:17:40.669Z,19.26
2023-03-01T13:18:40.633Z,19.26
2023-03-01T13:21:27.842Z,19.29
2023-03-01T13:22:28.849Z,19.26
2023-03-01T13:23:25.206Z,19.26
2023-03-01T13:25:31.883Z,19.26
2023-03-01T13:28:31.404Z,19.27
2023-03-01T13:29:40.038Z,19.27
2023-03-01T13:33:53.230Z,19.27
2023-03-01T13:53:14.573Z,19.27
2023-03-01T13:53:40.580Z,19.27
2023-03-01T13:54:48.276Z,19.26
2023-03-01T13:55:40.985Z,19.27
2023-03-01T13:57:08.553Z,19.26
2023-03-01T14:04:57.576Z,19.26
2023-03-01T14:06:04.667Z,19.24
2023-03-01T14:06:57.333Z,19.26
2023-03-01T14:07:57.125Z,19.26
2023-03-01T14:08:57.073Z,19.26
2023-03-01T14:09:57.212Z,19.26
2023-03-01T14:10:57.076Z,19.26
2023-03-01T14:11:57.096Z,19.26
2023-03-01T14:13:01.271Z,19.26
2023-03-01T14:13:57.028Z,19.27
2023-03-01T14:14:57.046Z,19.26
2023-03-01T14:15:57.152Z,19.26
2023-03-01T14:16:57.029Z,19.26
2023-03-01T14:17:56.994Z,19.26
2023-03-01T14:18:56.962Z,19.26
2023-03-01T14:19:56.957Z,19.26
2023-03-01T14:20:56.941Z,19.26
2023-03-01T14:21:57.127Z,19.24
2023-03-01T14:22:56.935Z,19.26
2023-03-01T14:23:56.919Z,19.24
2023-03-01T14:24:56.904Z,19.24
2023-03-01T14:25:56.897Z,19.24
2023-03-01T14:26:56.893Z,19.24
2023-03-01T14:27:57.048Z,19.24
2023-03-01T14:28:56.872Z,19.24
2023-03-01T14:29:56.864Z,19.23
2023-03-01T14:30:56.953Z,19.23
2023-03-01T14:31:56.930Z,19.26
2023-03-01T14:32:56.869Z,19.24
2023-03-01T14:33:56.968Z,19.26
2023-03-01T14:34:56.794Z,19.23
2023-03-01T14:35:56.891Z,19.24
2023-03-01T14:36:56.775Z,19.24
2023-03-01T14:37:56.780Z,19.23
2023-03-01T14:38:56.754Z,19.24
2023-03-01T14:39:56.873Z,19.24
2023-03-01T14:40:56.736Z,19.24
2023-03-01T14:42:00.609Z,19.23
2023-03-01T14:42:56.716Z,19.24
2023-03-01T14:43:56.698Z,19.24
2023-03-01T14:44:56.689Z,19.24
2023-03-01T14:45:56.951Z,19.24
2023-03-01T14:46:56.671Z,19.23
2023-03-01T14:47:56.666Z,19.26
2023-03-01T14:48:56.653Z,19.24
2023-03-01T14:49:56.662Z,19.24
2023-03-01T14:50:56.624Z,19.24
2023-03-01T14:51:56.756Z,19.24
2023-03-01T14:52:57.949Z,19.24
2023-03-01T14:53:56.625Z,19.24
2023-03-01T14:54:56.660Z,19.26
2023-03-01T14:55:56.623Z,19.26
2023-03-01T14:56:56.587Z,19.26
2023-03-01T14:57:56.639Z,19.26
2023-03-01T14:58:56.603Z,19.24
2023-03-01T14:59:56.558Z,19.26
2023-03-01T15:00:56.564Z,19.26
2023-03-01T15:01:56.619Z,19.24
2023-03-01T15:02:56.515Z,19.26
2023-03-01T15:03:56.774Z,19.27
2023-03-01T15:04:56.496Z,19.26
2023-03-01T15:05:56.489Z,19.26
2023-03-01T15:06:56.454Z,19.26
2023-03-01T15:07:57.083Z,19.24
2023-03-01T15:08:56.466Z,19.26
2023-03-01T15:09:56.595Z,19.26
2023-03-01T15:10:56.419Z,19.24
2023-03-01T15:11:56.416Z,19.26
2023-03-01T15:12:56.558Z,19.26
2023-03-01T15:13:56.520Z,19.26
2023-03-01T15:15:03.967Z,19.26
2023-03-01T15:15:56.643Z,19.26
2023-03-01T15:16:56.362Z,19.26
2023-03-01T15:17:56.366Z,19.26
2023-03-01T15:18:56.338Z,19.26
2023-03-01T15:19:56.332Z,19.24
2023-03-01T15:20:56.392Z,19.24
2023-03-01T15:21:56.486Z,19.27